M/T Filos — 9HQB8 — position and weather

sailwx.info

Track history (hours):
 
Tides and Currents Weather Stations Pressure Air Temp Water Temp Dewpoint Dewpoint Depression Visibility Wind Speed Wind Dir Waves Ship Positions

M/T Filos

Last reported at 2014-Jul-28 05:28 UTC. Time now 2014-Jul-28 06:14 UTC.
Position N 38°21' W 010°05'.

Length 180 m; draft 7.4 m.

Type: Tanker. MMSI: 224561000.

Date/timePositionNaut miles runAvg speedWind from/ knotsBaromVisibWave heightAir tempDewpointWater temp
2014-Jul-28 05:28N 38°21' W 010°05'1111.9
2014-Jul-28 04:32N 38°32' W 010°09'1511.7
2014-Jul-28 03:15N 38°46' W 010°11'2311.6
2014-Jul-28 01:16N 39°10' W 010°11'2311.9
2014-Jul-27 23:19N 39°33' W 010°11'912.1
2014-Jul-27 22:33N 39°42' W 010°11'2812.1
2014-Jul-27 20:16N 40°10' W 010°11'1112.3
2014-Jul-27 19:20N 40°21' W 010°11'49711.5
2014-Jul-26 00:04N 48°11' W 006°25'711.1
2014-Jul-25 23:25N 48°17' W 006°20'28911.6
2014-Jul-24 22:33N 50°31' E 000°14'1111.3
2014-Jul-24 21:33N 50°35' E 000°31'1110.6
2014-Jul-24 20:33N 50°41' E 000°45'1311.1
2014-Jul-24 19:23N 50°49' E 001°00'1112.2
2014-Jul-24 18:31N 50°56' E 001°13'1313.9
2014-Jul-24 17:33N 51°05' E 001°29'1514.6
2014-Jul-24 16:34N 51°14' E 001°47'1312.5
2014-Jul-24 15:33N 51°24' E 001°59'1111.1
2014-Jul-24 14:33N 51°21' E 002°16'1111.3
2014-Jul-24 13:33N 51°23' E 002°34'1110.6
2014-Jul-24 12:33N 51°23' E 002°51'1110.3
2014-Jul-24 11:32N 51°24' E 003°07'10 9.7
2014-Jul-24 10:33N 51°25' E 003°23'9 9.0
2014-Jul-24 09:33N 51°26' E 003°37'8 7.7
2014-Jul-24 08:34N 51°22' E 003°47'3 2.9
2014-Jul-24 07:33N 51°19' E 003°49'6 5.6
2014-Jul-24 06:33N 51°14' E 003°48'7 6.6
2014-Jul-24 05:34N 51°07' E 003°46'3 2.4
2014-Jul-24 04:29N 51°05' E 003°44'0 0.0
2014-Jul-24 03:29N 51°05' E 003°44'0 0.0
2014-Jul-24 02:29N 51°05' E 003°44'0 0.0
2014-Jul-24 01:32N 51°05' E 003°44'0 0.0
2014-Jul-24 00:29N 51°05' E 003°44'0 0.0
2014-Jul-23 23:29N 51°05' E 003°44'0 0.0
2014-Jul-23 22:29N 51°05' E 003°44'0 0.0
2014-Jul-23 21:29N 51°05' E 003°44'0 0.0
2014-Jul-23 20:32N 51°05' E 003°44'0 0.0
2014-Jul-23 19:32N 51°05' E 003°44'0 0.0
2014-Jul-23 18:29N 51°05' E 003°44'0 0.0
2014-Jul-23 17:32N 51°05' E 003°44'0 0.0
2014-Jul-23 16:32N 51°05' E 003°44'0 0.0
2014-Jul-23 15:32N 51°05' E 003°44'0 0.0
2014-Jul-23 14:32N 51°05' E 003°44'0 0.0
2014-Jul-23 13:29N 51°05' E 003°44'0 0.0
2014-Jul-23 12:32N 51°05' E 003°44'0 0.0
2014-Jul-23 11:32N 51°05' E 003°44'0 0.0
2014-Jul-23 10:29N 51°05' E 003°44'0 0.0
2014-Jul-23 09:29N 51°05' E 003°44'0 0.0
2014-Jul-23 08:32N 51°05' E 003°44'0 0.0
2014-Jul-23 07:29N 51°05' E 003°44'0 0.0
2014-Jul-23 06:29N 51°05' E 003°44'0 0.0
2014-Jul-23 05:32N 51°05' E 003°44'0 0.0
2014-Jul-23 04:32N 51°05' E 003°44'0 0.0
2014-Jul-23 03:32N 51°05' E 003°44'0 0.0
2014-Jul-23 02:32N 51°05' E 003°44'0 0.0
2014-Jul-23 01:32N 51°05' E 003°44'0 0.0
2014-Jul-23 00:32N 51°05' E 003°44'0 0.0
2014-Jul-22 23:32N 51°05' E 003°44'0 0.0
2014-Jul-22 22:32N 51°05' E 003°44'0 0.0
2014-Jul-22 21:26N 51°05' E 003°44'0 0.0
2014-Jul-22 20:32N 51°05' E 003°44'0 0.0
2014-Jul-22 19:34N 51°05' E 003°44'3 3.5
2014-Jul-22 18:33N 51°08' E 003°46'7 6.7
2014-Jul-22 17:34N 51°15' E 003°49'5 5.0
2014-Jul-22 16:34N 51°20' E 003°49'2 2.5
2014-Jul-22 15:34N 51°22' E 003°46'7 7.5
2014-Jul-22 14:33N 51°26' E 003°37'9 8.6
2014-Jul-22 13:33N 51°31' E 003°26'1211.3
2014-Jul-22 12:31N 51°42' E 003°17'7 6.6
2014-Jul-22 11:31N 51°48' E 003°19'2 2.0
2014-Jul-22 10:28N 51°49' E 003°22'0 0.0
2014-Jul-22 09:28N 51°49' E 003°22'0 0.0
2014-Jul-22 08:19N 51°49' E 003°22'0 0.0
2014-Jul-22 06:13N 51°49' E 003°22'0 0.0
2014-Jul-22 03:31N 51°49' E 003°22'0 0.0
2014-Jul-22 02:10N 51°49' E 003°22'0 0.0
2014-Jul-22 00:28N 51°49' E 003°22'0 0.0
2014-Jul-21 12:28N 51°49' E 003°22'0 0.0
2014-Jul-21 10:28N 51°49' E 003°22'0 0.0
2014-Jul-21 09:16N 51°49' E 003°22'0 0.0
2014-Jul-21 08:25N 51°49' E 003°22'0 0.0
2014-Jul-21 04:31N 51°49' E 003°22'0 0.0
2014-Jul-21 03:28N 51°49' E 003°22'0 0.0
2014-Jul-21 02:22N 51°49' E 003°22'0 0.0
2014-Jul-21 01:31N 51°49' E 003°22'0 0.1
2014-Jul-21 00:28N 51°49' E 003°22'4 3.9
2014-Jul-20 23:33N 51°47' E 003°17'1111.2
2014-Jul-20 22:33N 51°36' E 003°23'1312.6
2014-Jul-20 21:33N 51°26' E 003°34'1010.0
2014-Jul-20 20:34N 51°21' E 003°48'9 9.2
2014-Jul-20 19:33N 51°26' E 004°01'7 7.2
2014-Jul-20 18:33N 51°24' E 004°12'9 8.6
2014-Jul-20 17:34N 51°17' E 004°19'2 2.3
2014-Jul-20 16:33N 51°16' E 004°16'2 1.7
2014-Jul-20 15:31N 51°17' E 004°14'0 0.0
2014-Jul-20 14:28N 51°17' E 004°14'0 0.0
2014-Jul-20 13:31N 51°17' E 004°14'0 0.0
2014-Jul-20 12:28N 51°17' E 004°14'0 0.0
2014-Jul-20 11:28N 51°17' E 004°14'0 0.0
2014-Jul-20 10:28N 51°17' E 004°14'0 0.0
2014-Jul-20 09:31N 51°17' E 004°14'0 0.0
2014-Jul-19 22:19N 51°17' E 004°14'0 0.0
2014-Jul-19 17:16N 51°17' E 004°14'0 0.0
2014-Jul-19 16:22N 51°17' E 004°14'0 0.0
2014-Jul-19 15:04N 51°17' E 004°14'0 0.0
2014-Jul-19 14:31N 51°17' E 004°14'0 0.0
2014-Jul-19 13:13N 51°17' E 004°14'0 0.0
2014-Jul-19 12:25N 51°17' E 004°14'0 0.0
2014-Jul-19 11:31N 51°17' E 004°14'0 0.0
2014-Jul-19 08:28N 51°17' E 004°14'0 0.0
2014-Jul-19 07:10N 51°17' E 004°14'0 0.0
2014-Jul-19 06:13N 51°17' E 004°14'0 0.0
2014-Jul-18 22:33N 51°17' E 004°14'2 2.2
2014-Jul-18 21:34N 51°16' E 004°17'4 3.9
2014-Jul-18 20:34N 51°20' E 004°16'7 6.6
2014-Jul-18 19:34N 51°22' E 004°06'6 6.0
2014-Jul-18 18:33N 51°23' E 003°57'9 9.0
2014-Jul-18 17:34N 51°24' E 003°43'9 9.1
2014-Jul-18 16:34N 51°25' E 003°28'1413.8
2014-Jul-18 15:33N 51°24' E 003°06'1111.4
2014-Jul-18 14:34N 51°22' E 002°48'7 6.5
2014-Jul-18 13:33N 51°21' E 002°38'3 3.4
2014-Jul-18 12:33N 51°20' E 002°32'0 0.0
2014-Jul-18 11:33N 51°20' E 002°32'0 0.0
2014-Jul-18 10:33N 51°20' E 002°33'0 0.0
2014-Jul-18 09:33N 51°20' E 002°33'0 0.0
2014-Jul-18 08:33N 51°20' E 002°33'2 2.5
2014-Jul-18 07:33N 51°22' E 002°30'1211.8
2014-Jul-18 06:32N 51°17' E 002°12'1313.2
2014-Jul-18 05:34N 51°10' E 001°54'  
Track history (hours):
 
Tides and Currents Weather Stations Pressure Air Temp Water Temp Dewpoint Dewpoint Depression Visibility Wind Speed Wind Dir Waves Ship Positions

M/T Filos

Last reported at 2014-Jul-28 05:28 UTC. Time now 2014-Jul-28 06:14 UTC.
Position N 38°21' W 010°05'.

Length 180 m; draft 7.4 m.

Type: Tanker. MMSI: 224561000.

Date/timePositionNaut miles runAvg speedWind from/ knotsBaromVisibWave heightAir tempDewpointWater temp
2014-Jul-28 05:28N 38°21' W 010°05'1111.9
2014-Jul-28 04:32N 38°32' W 010°09'1511.7
2014-Jul-28 03:15N 38°46' W 010°11'2311.6
2014-Jul-28 01:16N 39°10' W 010°11'2311.9
2014-Jul-27 23:19N 39°33' W 010°11'912.1
2014-Jul-27 22:33N 39°42' W 010°11'2812.1
2014-Jul-27 20:16N 40°10' W 010°11'1112.3
2014-Jul-27 19:20N 40°21' W 010°11'49711.5
2014-Jul-26 00:04N 48°11' W 006°25'711.1
2014-Jul-25 23:25N 48°17' W 006°20'28911.6
2014-Jul-24 22:33N 50°31' E 000°14'1111.3
2014-Jul-24 21:33N 50°35' E 000°31'1110.6
2014-Jul-24 20:33N 50°41' E 000°45'1311.1
2014-Jul-24 19:23N 50°49' E 001°00'1112.2
2014-Jul-24 18:31N 50°56' E 001°13'1313.9
2014-Jul-24 17:33N 51°05' E 001°29'1514.6
2014-Jul-24 16:34N 51°14' E 001°47'1312.5
2014-Jul-24 15:33N 51°24' E 001°59'1111.1
2014-Jul-24 14:33N 51°21' E 002°16'1111.3
2014-Jul-24 13:33N 51°23' E 002°34'1110.6
2014-Jul-24 12:33N 51°23' E 002°51'1110.3
2014-Jul-24 11:32N 51°24' E 003°07'10 9.7
2014-Jul-24 10:33N 51°25' E 003°23'9 9.0
2014-Jul-24 09:33N 51°26' E 003°37'8 7.7
2014-Jul-24 08:34N 51°22' E 003°47'3 2.9
2014-Jul-24 07:33N 51°19' E 003°49'6 5.6
2014-Jul-24 06:33N 51°14' E 003°48'7 6.6
2014-Jul-24 05:34N 51°07' E 003°46'3 2.4
2014-Jul-24 04:29N 51°05' E 003°44'0 0.0
2014-Jul-24 03:29N 51°05' E 003°44'0 0.0
2014-Jul-24 02:29N 51°05' E 003°44'0 0.0
2014-Jul-24 01:32N 51°05' E 003°44'0 0.0
2014-Jul-24 00:29N 51°05' E 003°44'0 0.0
2014-Jul-23 23:29N 51°05' E 003°44'0 0.0
2014-Jul-23 22:29N 51°05' E 003°44'0 0.0
2014-Jul-23 21:29N 51°05' E 003°44'0 0.0
2014-Jul-23 20:32N 51°05' E 003°44'0 0.0
2014-Jul-23 19:32N 51°05' E 003°44'0 0.0
2014-Jul-23 18:29N 51°05' E 003°44'0 0.0
2014-Jul-23 17:32N 51°05' E 003°44'0 0.0
2014-Jul-23 16:32N 51°05' E 003°44'0 0.0
2014-Jul-23 15:32N 51°05' E 003°44'0 0.0
2014-Jul-23 14:32N 51°05' E 003°44'0 0.0
2014-Jul-23 13:29N 51°05' E 003°44'0 0.0
2014-Jul-23 12:32N 51°05' E 003°44'0 0.0
2014-Jul-23 11:32N 51°05' E 003°44'0 0.0
2014-Jul-23 10:29N 51°05' E 003°44'0 0.0
2014-Jul-23 09:29N 51°05' E 003°44'0 0.0
2014-Jul-23 08:32N 51°05' E 003°44'0 0.0
2014-Jul-23 07:29N 51°05' E 003°44'0 0.0
2014-Jul-23 06:29N 51°05' E 003°44'0 0.0
2014-Jul-23 05:32N 51°05' E 003°44'0 0.0
2014-Jul-23 04:32N 51°05' E 003°44'0 0.0
2014-Jul-23 03:32N 51°05' E 003°44'0 0.0
2014-Jul-23 02:32N 51°05' E 003°44'0 0.0
2014-Jul-23 01:32N 51°05' E 003°44'0 0.0
2014-Jul-23 00:32N 51°05' E 003°44'0 0.0
2014-Jul-22 23:32N 51°05' E 003°44'0 0.0
2014-Jul-22 22:32N 51°05' E 003°44'0 0.0
2014-Jul-22 21:26N 51°05' E 003°44'0 0.0
2014-Jul-22 20:32N 51°05' E 003°44'0 0.0
2014-Jul-22 19:34N 51°05' E 003°44'3 3.5
2014-Jul-22 18:33N 51°08' E 003°46'7 6.7
2014-Jul-22 17:34N 51°15' E 003°49'5 5.0
2014-Jul-22 16:34N 51°20' E 003°49'2 2.5
2014-Jul-22 15:34N 51°22' E 003°46'7 7.5
2014-Jul-22 14:33N 51°26' E 003°37'9 8.6
2014-Jul-22 13:33N 51°31' E 003°26'1211.3
2014-Jul-22 12:31N 51°42' E 003°17'7 6.6
2014-Jul-22 11:31N 51°48' E 003°19'2 2.0
2014-Jul-22 10:28N 51°49' E 003°22'0 0.0
2014-Jul-22 09:28N 51°49' E 003°22'0 0.0
2014-Jul-22 08:19N 51°49' E 003°22'0 0.0
2014-Jul-22 06:13N 51°49' E 003°22'0 0.0
2014-Jul-22 03:31N 51°49' E 003°22'0 0.0
2014-Jul-22 02:10N 51°49' E 003°22'0 0.0
2014-Jul-22 00:28N 51°49' E 003°22'0 0.0
2014-Jul-21 12:28N 51°49' E 003°22'0 0.0
2014-Jul-21 10:28N 51°49' E 003°22'0 0.0
2014-Jul-21 09:16N 51°49' E 003°22'0 0.0
2014-Jul-21 08:25N 51°49' E 003°22'0 0.0
2014-Jul-21 04:31N 51°49' E 003°22'0 0.0
2014-Jul-21 03:28N 51°49' E 003°22'0 0.0
2014-Jul-21 02:22N 51°49' E 003°22'0 0.0
2014-Jul-21 01:31N 51°49' E 003°22'0 0.1
2014-Jul-21 00:28N 51°49' E 003°22'4 3.9
2014-Jul-20 23:33N 51°47' E 003°17'1111.2
2014-Jul-20 22:33N 51°36' E 003°23'1312.6
2014-Jul-20 21:33N 51°26' E 003°34'1010.0
2014-Jul-20 20:34N 51°21' E 003°48'9 9.2
2014-Jul-20 19:33N 51°26' E 004°01'7 7.2
2014-Jul-20 18:33N 51°24' E 004°12'9 8.6
2014-Jul-20 17:34N 51°17' E 004°19'2 2.3
2014-Jul-20 16:33N 51°16' E 004°16'2 1.7
2014-Jul-20 15:31N 51°17' E 004°14'0 0.0
2014-Jul-20 14:28N 51°17' E 004°14'0 0.0
2014-Jul-20 13:31N 51°17' E 004°14'0 0.0
2014-Jul-20 12:28N 51°17' E 004°14'0 0.0
2014-Jul-20 11:28N 51°17' E 004°14'0 0.0
2014-Jul-20 10:28N 51°17' E 004°14'0 0.0
2014-Jul-20 09:31N 51°17' E 004°14'0 0.0
2014-Jul-19 22:19N 51°17' E 004°14'0 0.0
2014-Jul-19 17:16N 51°17' E 004°14'0 0.0
2014-Jul-19 16:22N 51°17' E 004°14'0 0.0
2014-Jul-19 15:04N 51°17' E 004°14'0 0.0
2014-Jul-19 14:31N 51°17' E 004°14'0 0.0
2014-Jul-19 13:13N 51°17' E 004°14'0 0.0
2014-Jul-19 12:25N 51°17' E 004°14'0 0.0
2014-Jul-19 11:31N 51°17' E 004°14'0 0.0
2014-Jul-19 08:28N 51°17' E 004°14'0 0.0
2014-Jul-19 07:10N 51°17' E 004°14'0 0.0
2014-Jul-19 06:13N 51°17' E 004°14'0 0.0
2014-Jul-18 22:33N 51°17' E 004°14'2 2.2
2014-Jul-18 21:34N 51°16' E 004°17'4 3.9
2014-Jul-18 20:34N 51°20' E 004°16'7 6.6
2014-Jul-18 19:34N 51°22' E 004°06'6 6.0
2014-Jul-18 18:33N 51°23' E 003°57'9 9.0
2014-Jul-18 17:34N 51°24' E 003°43'9 9.1
2014-Jul-18 16:34N 51°25' E 003°28'1413.8
2014-Jul-18 15:33N 51°24' E 003°06'1111.4
2014-Jul-18 14:34N 51°22' E 002°48'7 6.5
2014-Jul-18 13:33N 51°21' E 002°38'3 3.4
2014-Jul-18 12:33N 51°20' E 002°32'0 0.0
2014-Jul-18 11:33N 51°20' E 002°32'0 0.0
2014-Jul-18 10:33N 51°20' E 002°33'0 0.0
2014-Jul-18 09:33N 51°20' E 002°33'0 0.0
2014-Jul-18 08:33N 51°20' E 002°33'2 2.5
2014-Jul-18 07:33N 51°22' E 002°30'1211.8
2014-Jul-18 06:32N 51°17' E 002°12'1313.2
2014-Jul-18 05:34N 51°10' E 001°54'  

Dump ship's entire track history